Airfield :
LOGIN :

Register | Disclaimer

   EN    FR    IT 

 










Legend :    VFR   Marginal VFR   IFR   Intensive IFR   Very Intensive IFR
Visi :
Ceiling :
>= 8 km
>= 3000ft
5 to 8 km
1000 to 3000 ft
1500m to 5 km
500 to 1000 ft
800 to 1500m
200 to 500 ft
< 800m
< 200 ft
Symbols :   Thunderstorms  Fog  Heavy snow  Heavy precipitations  Wind > 20 kt
SIGMETs :     Misc.  Thunderstorms  Icing  Turbulence  Mountain Waves  Volcanic Ashes







- Airport Elevation : 187 ft


ETNW - Wunstorf AB

CURRENT METAR :
  • 131220Z 19021G31KT 9999 -RA FEW018 BKN065 04/00 Q0999 BLU BLU BECMG WHT

EXPIRED METARs :
  • 131120Z 18014KT 9999 -RA FEW018 SCT032 BKN090 04/M00 Q1002 BLU BLU+ BECMG WHT
  • 131020Z 18017KT 9999 FEW020 BKN090 04/M01 Q1004 BLU BLU+ BECMG WHT

TAF TAF ETNW
Valid from the 13 at 12:00 until the 14 at 12:00 UTC


131120Z 1312/1412 21015G25KT 8000 -RA SCT020 BKN030
BECMG 1312/1314 20015G25KT 6000 -RA SCT012 BKN020
TEMPO 1314/1324 19020G32KT 4000 RA BKN007 BKN012
PROB30 1314/1316 19020G35KT 2500 SN BKN005 OVC12
BECMG 1322/1324 23015G25KT 7000 NSW BKN015 BKN150
BECMG 1406/1408 24017G27KT 5000 -RA SCT007 BKN012 OVC025
TEMPO 1408/1412 24020G32KT 3500 RASN BKN007 OVC010 BY ETGL
No reported NOTAMs for that airfield.



MET'MAP, your aeronautical weather chart ! - Copyright ORBIFLY December 2007 - Disclaimer

ORBIFLY MET'MAP TEAM :

Programming & Development : Alexandra Zaïnal
Concept & Development : Baudouin d'Aumeries
Co-Development & Prog : Marc-Olivier Méhu
Technical & hardware support : Manuel Goepfert

Contact : metmap@orbifly.com




SOURCES & CREDITS :

   NOAA